Time;durP1;ratioP1;P1;durP2;ratioP2;P2;SDS_P1;SDS_P2;PMS_P1;PMS_P2;Temp;Humidity;BMP_temperature;BMP_pressure;BME280_temperature;BME280_humidity;BME280_pressure;Samples;Min_cycle;Max_cycle;Signal;HPM_P1;HPM_P2
2022/01/24 06:00:22;;;;;;;10.00;8.90;;;4.40;97.20;;;;;;1741487;28;20245;-81
2022/01/24 06:01:13;;;;;;;11.77;10.63;;;4.40;97.20;;;;;;1741831;28;20203;-82
2022/01/24 06:02:06;;;;;;;11.00;9.90;;;4.40;97.20;;;;;;1741599;28;20282;-82
2022/01/24 06:02:56;;;;;;;11.43;9.70;;;4.40;97.20;;;;;;1741743;28;20495;-81
2022/01/24 06:03:48;;;;;;;10.30;9.13;;;4.40;97.20;;;;;;1741161;28;20191;-81
2022/01/24 06:04:39;;;;;;;9.77;8.85;;;4.40;97.20;;;;;;1741412;28;20450;-82
2022/01/24 06:05:31;;;;;;;10.13;9.13;;;4.40;97.20;;;;;;1741667;28;20202;-83
2022/01/24 06:06:22;;;;;;;10.18;9.05;;;4.40;97.20;;;;;;1741634;28;20235;-83
2022/01/24 06:07:13;;;;;;;12.27;10.23;;;4.40;97.20;;;;;;1741563;28;20209;-83
2022/01/24 06:08:05;;;;;;;11.02;9.93;;;4.40;97.20;;;;;;1741105;28;20210;-82
2022/01/24 06:08:56;;;;;;;10.35;9.35;;;4.40;97.20;;;;;;1741012;28;20604;-82
2022/01/24 06:09:47;;;;;;;11.30;9.90;;;4.40;97.20;;;;;;1741709;28;20647;-82
2022/01/24 06:10:39;;;;;;;11.53;9.93;;;4.40;97.20;;;;;;1741987;28;20597;-82
2022/01/24 06:11:30;;;;;;;10.85;9.75;;;4.40;97.20;;;;;;1741839;28;20199;-83
2022/01/24 06:12:22;;;;;;;10.90;9.90;;;4.40;97.20;;;;;;1741872;28;20226;-82
2022/01/24 06:13:13;;;;;;;11.20;10.10;;;4.40;97.20;;;;;;1741913;28;20203;-82
2022/01/24 06:14:05;;;;;;;11.00;9.63;;;4.30;97.20;;;;;;1741692;28;20274;-83
2022/01/24 06:14:56;;;;;;;11.05;9.90;;;4.30;97.20;;;;;;1741385;28;20540;-81
2022/01/24 06:15:49;;;;;;;10.85;9.73;;;4.30;97.20;;;;;;1741593;28;20206;-82
2022/01/24 06:16:40;;;;;;;10.50;9.40;;;4.30;97.20;;;;;;1741643;28;20697;-82
2022/01/24 06:17:32;;;;;;;10.00;9.10;;;4.30;97.20;;;;;;1741739;28;20562;-82
2022/01/24 06:18:25;;;;;;;10.65;9.65;;;4.30;97.20;;;;;;1741510;28;20492;-82
2022/01/24 06:19:17;;;;;;;11.57;10.05;;;4.30;97.20;;;;;;1741493;28;20595;-81
2022/01/24 06:20:08;;;;;;;11.05;9.95;;;4.30;97.20;;;;;;1741631;28;20214;-82
2022/01/24 06:21:00;;;;;;;13.18;9.48;;;4.30;97.20;;;;;;1741387;28;20207;-80
2022/01/24 06:21:51;;;;;;;10.93;9.82;;;4.30;97.20;;;;;;1741646;28;20681;-82
2022/01/24 06:22:43;;;;;;;10.90;9.80;;;4.20;97.20;;;;;;1741664;28;20674;-82
2022/01/24 06:23:33;;;;;;;11.48;9.50;;;4.20;97.20;;;;;;1736638;28;20210;-81
2022/01/24 06:24:25;;;;;;;10.83;9.73;;;4.20;97.20;;;;;;1736271;28;20202;-83
2022/01/24 06:25:21;;;;;;;10.93;9.82;;;4.20;97.20;;;;;;1735958;28;20214;-83
2022/01/24 06:26:13;;;;;;;12.23;10.23;;;4.20;97.20;;;;;;1739749;28;20622;-83
2022/01/24 06:27:04;;;;;;;12.25;10.80;;;4.10;97.20;;;;;;1737431;28;20253;-83
2022/01/24 06:27:57;;;;;;;11.30;10.13;;;4.10;97.20;;;;;;1736125;28;20253;-82
2022/01/24 06:28:47;;;;;;;10.98;9.90;;;4.10;97.20;;;;;;1739874;28;20452;-82
2022/01/24 06:29:39;;;;;;;11.87;10.60;;;4.10;97.20;;;;;;1739358;28;20199;-83
2022/01/24 06:30:30;;;;;;;10.68;9.57;;;4.10;97.20;;;;;;1739028;28;20460;-83
2022/01/24 06:31:23;;;;;;;11.47;10.20;;;4.00;97.20;;;;;;1738113;28;20193;-83
2022/01/24 06:32:14;;;;;;;10.82;9.82;;;4.00;97.20;;;;;;1738491;28;20222;-83
2022/01/24 06:33:06;;;;;;;10.93;9.80;;;4.00;97.20;;;;;;1740766;28;20191;-84
2022/01/24 06:33:56;;;;;;;11.70;10.55;;;4.00;97.20;;;;;;1740720;28;20587;-82
2022/01/24 06:34:48;;;;;;;11.13;10.03;;;4.10;97.20;;;;;;1740458;28;20191;-83
2022/01/24 06:35:39;;;;;;;10.90;9.90;;;4.10;97.20;;;;;;1740449;28;20210;-82
2022/01/24 06:36:31;;;;;;;10.37;9.37;;;4.10;97.20;;;;;;1734951;28;20202;-80
2022/01/24 06:37:21;;;;;;;10.85;9.85;;;4.10;97.20;;;;;;1740765;28;20218;-82
2022/01/24 06:38:13;;;;;;;10.50;9.50;;;4.00;97.20;;;;;;1740716;28;20278;-82
2022/01/24 06:39:05;;;;;;;12.70;10.05;;;4.00;97.20;;;;;;1741407;28;20230;-81
2022/01/24 06:39:57;;;;;;;11.77;10.30;;;4.00;97.20;;;;;;1741536;28;20226;-81
2022/01/24 06:40:48;;;;;;;11.57;9.88;;;4.00;97.20;;;;;;1738749;28;20222;-82
2022/01/24 06:41:41;;;;;;;10.70;9.60;;;4.00;97.20;;;;;;1739021;28;20190;-83
2022/01/24 06:42:32;;;;;;;10.80;9.80;;;4.00;97.20;;;;;;1741397;28;20206;-82
2022/01/24 06:43:24;;;;;;;11.30;10.20;;;4.00;97.20;;;;;;1740519;28;20200;-83
2022/01/24 06:44:15;;;;;;;12.60;10.52;;;4.00;97.20;;;;;;1738605;28;20206;-82
2022/01/24 06:45:07;;;;;;;15.33;11.30;;;4.00;97.20;;;;;;1741037;28;20717;-82
2022/01/24 06:45:58;;;;;;;16.88;14.20;;;4.00;97.20;;;;;;1741023;28;20214;-82
2022/01/24 06:46:51;;;;;;;25.07;18.27;;;4.00;97.20;;;;;;1741258;28;20210;-83
2022/01/24 06:47:42;;;;;;;30.98;24.80;;;4.00;97.20;;;;;;1741185;28;20226;-82
2022/01/24 06:48:34;;;;;;;40.77;30.00;;;4.00;97.20;;;;;;1741310;28;20206;-82
2022/01/24 06:49:24;;;;;;;37.58;26.23;;;4.00;97.20;;;;;;1741304;28;20446;-83
2022/01/24 06:50:16;;;;;;;40.00;26.40;;;4.00;97.20;;;;;;1741372;28;20199;-84
2022/01/24 06:51:10;;;;;;;27.45;22.88;;;4.00;97.20;;;;;;1741106;28;20242;-82
2022/01/24 06:52:02;;;;;;;29.33;21.10;;;4.00;97.20;;;;;;1741279;28;20253;-83
2022/01/24 06:52:52;;;;;;;26.70;20.75;;;4.00;97.20;;;;;;1741367;28;20199;-81
2022/01/24 06:53:44;;;;;;;24.30;18.90;;;4.00;97.20;;;;;;1741729;28;20199;-83
2022/01/24 06:54:36;;;;;;;24.23;19.70;;;4.00;97.20;;;;;;1741433;28;20238;-82
2022/01/24 06:55:28;;;;;;;27.35;20.17;;;4.00;97.20;;;;;;1741402;28;20281;-83
2022/01/24 06:56:19;;;;;;;25.90;20.75;;;4.00;97.20;;;;;;1740975;28;20556;-82
2022/01/24 06:57:12;;;;;;;24.48;18.83;;;4.00;97.20;;;;;;1741214;28;20249;-82
2022/01/24 06:58:03;;;;;;;24.00;19.55;;;4.10;97.20;;;;;;1740936;28;20210;-82
2022/01/24 06:58:54;;;;;;;24.03;18.20;;;4.10;97.20;;;;;;1741356;28;20199;-82
2022/01/24 06:59:46;;;;;;;20.45;16.80;;;4.10;97.20;;;;;;1741227;28;20448;-81
2022/01/24 07:00:38;;;;;;;22.20;17.08;;;4.10;97.20;;;;;;1741002;28;20231;-82
2022/01/24 07:01:28;;;;;;;21.92;17.27;;;4.10;97.20;;;;;;1741541;28;20246;-81
2022/01/24 07:02:22;;;;;;;21.37;17.57;;;4.10;97.20;;;;;;1741152;28;20200;-82
2022/01/24 07:03:12;;;;;;;23.42;17.40;;;4.10;97.20;;;;;;1741461;28;20261;-82
2022/01/24 07:04:05;;;;;;;22.50;17.63;;;4.10;97.20;;;;;;1741046;28;20214;-83
2022/01/24 07:04:55;;;;;;;19.52;15.32;;;4.00;97.20;;;;;;1741415;28;20199;-82
2022/01/24 07:05:47;;;;;;;21.13;16.00;;;4.00;97.20;;;;;;1741478;28;20199;-82
2022/01/24 07:06:38;;;;;;;19.88;15.50;;;4.10;97.20;;;;;;1741450;28;20207;-82
2022/01/24 07:07:30;;;;;;;16.40;14.70;;;4.10;97.20;;;;;;1741343;28;20199;-84
2022/01/24 07:08:21;;;;;;;18.52;15.63;;;4.10;97.20;;;;;;1740987;28;20203;-82
2022/01/24 07:09:13;;;;;;;16.87;14.23;;;4.10;97.20;;;;;;1740969;28;20192;-82
2022/01/24 07:10:05;;;;;;;16.98;14.65;;;4.00;97.20;;;;;;1741296;28;20203;-83
2022/01/24 07:10:57;;;;;;;16.63;14.48;;;4.00;97.20;;;;;;1741353;28;20219;-82
2022/01/24 07:11:49;;;;;;;15.55;13.95;;;4.00;97.20;;;;;;1741327;28;20210;-82
2022/01/24 07:12:40;;;;;;;16.80;14.68;;;4.00;97.20;;;;;;1740987;28;20195;-82
2022/01/24 07:13:31;;;;;;;16.13;14.38;;;4.00;97.20;;;;;;1741289;28;20207;-82
2022/01/24 07:14:23;;;;;;;17.23;15.30;;;4.00;97.20;;;;;;1741338;28;20302;-83
2022/01/24 07:15:16;;;;;;;16.58;14.77;;;4.00;97.20;;;;;;1741022;28;20207;-83
2022/01/24 07:16:08;;;;;;;17.83;15.98;;;4.00;97.20;;;;;;1734464;28;20204;-82
2022/01/24 07:17:11;;;;;;;19.13;17.23;;;4.00;97.20;;;;;;1740378;28;20200;-82
2022/01/24 07:18:58;;;;;;;18.55;16.05;;;4.00;97.20;;;;;;1740959;28;20215;-82
2022/01/24 07:19:30;;;;;;;18.63;16.25;;;4.00;97.20;;;;;;1741283;28;20204;-83
2022/01/24 07:20:22;;;;;;;17.98;16.08;;;3.90;97.20;;;;;;1741779;28;20277;-81
2022/01/24 07:21:13;;;;;;;15.48;14.07;;;3.90;97.20;;;;;;1742669;28;20206;-83
2022/01/24 07:22:06;;;;;;;18.10;16.20;;;3.90;97.20;;;;;;1742375;28;20203;-83
2022/01/24 07:22:56;;;;;;;17.38;15.55;;;3.90;97.20;;;;;;1742707;28;20218;-83
2022/01/24 07:23:48;;;;;;;15.87;14.20;;;4.00;97.20;;;;;;1743295;28;20266;-81
2022/01/24 07:24:40;;;;;;;15.20;13.70;;;3.90;97.20;;;;;;1743238;28;20250;-82
2022/01/24 07:25:31;;;;;;;15.00;12.88;;;3.90;97.20;;;;;;1742898;28;20207;-82
2022/01/24 07:26:23;;;;;;;14.30;12.90;;;3.90;97.20;;;;;;1742205;28;20213;-82
2022/01/24 07:27:13;;;;;;;13.35;11.82;;;3.90;97.20;;;;;;1742260;28;20507;-81
2022/01/24 07:28:05;;;;;;;12.50;11.23;;;3.90;97.20;;;;;;1742097;28;20203;-82
2022/01/24 07:28:56;;;;;;;13.35;11.90;;;3.90;97.20;;;;;;1742711;28;20230;-83
2022/01/24 07:29:47;;;;;;;13.37;11.97;;;4.00;97.20;;;;;;1741847;28;20187;-82
2022/01/24 07:30:38;;;;;;;14.40;12.32;;;4.00;97.20;;;;;;1742252;28;20252;-82
2022/01/24 07:31:30;;;;;;;13.07;11.60;;;4.00;97.20;;;;;;1742050;28;20195;-83
2022/01/24 07:32:21;;;;;;;13.95;12.55;;;4.00;97.20;;;;;;1742700;28;20203;-83
2022/01/24 07:33:15;;;;;;;13.83;12.33;;;4.00;97.20;;;;;;1742138;28;20198;-81
2022/01/24 07:34:06;;;;;;;13.80;12.40;;;4.00;97.20;;;;;;1740287;28;20260;-82
2022/01/24 07:34:58;;;;;;;17.17;12.43;;;4.00;97.20;;;;;;1742585;28;20241;-83
2022/01/24 07:35:50;;;;;;;15.90;13.50;;;4.00;97.20;;;;;;1742308;28;20211;-82
2022/01/24 07:36:41;;;;;;;16.17;14.48;;;4.00;97.20;;;;;;1742609;28;20207;-83
2022/01/24 07:37:32;;;;;;;15.88;13.70;;;4.00;97.20;;;;;;1742472;28;20199;-83
2022/01/24 07:38:24;;;;;;;16.40;14.00;;;4.00;97.20;;;;;;1742545;28;20199;-83
2022/01/24 07:39:15;;;;;;;16.42;14.73;;;3.90;97.20;;;;;;1742303;28;20195;-83
2022/01/24 07:40:09;;;;;;;14.85;13.02;;;4.00;97.20;;;;;;1742426;28;20580;-82
2022/01/24 07:41:01;;;;;;;15.32;13.50;;;4.00;97.20;;;;;;1742361;28;20866;-82
2022/01/24 07:41:53;;;;;;;14.88;13.30;;;4.00;97.20;;;;;;1742330;28;20218;-83
2022/01/24 07:42:54;;;;;;;14.23;12.35;;;4.00;97.20;;;;;;1742191;28;20595;-82
2022/01/24 07:43:46;;;;;;;14.50;13.10;;;4.00;97.20;;;;;;1739448;28;20705;-82
2022/01/24 07:44:36;;;;;;;14.85;13.35;;;4.00;97.20;;;;;;1742432;28;20254;-82
2022/01/24 07:45:28;;;;;;;14.07;12.63;;;4.00;97.20;;;;;;1742352;28;20213;-82
2022/01/24 07:46:19;;;;;;;14.45;13.05;;;4.00;97.20;;;;;;1742426;28;20690;-83
2022/01/24 07:47:10;;;;;;;15.13;13.33;;;4.00;97.20;;;;;;1742285;28;20561;-83
2022/01/24 07:48:02;;;;;;;14.13;12.73;;;4.00;97.20;;;;;;1741720;28;20706;-83
2022/01/24 07:48:55;;;;;;;14.52;13.02;;;4.00;97.20;;;;;;1741928;28;20211;-83
2022/01/24 07:49:46;;;;;;;13.57;12.18;;;4.00;97.20;;;;;;1742378;28;20210;-82
2022/01/24 07:50:40;;;;;;;13.97;12.53;;;4.10;97.20;;;;;;1742262;28;20223;-82
2022/01/24 07:51:32;;;;;;;13.40;12.00;;;4.10;97.20;;;;;;1741975;28;20202;-83
2022/01/24 07:52:23;;;;;;;12.60;11.30;;;4.10;97.20;;;;;;1742251;28;20666;-82
2022/01/24 07:53:16;;;;;;;13.25;11.85;;;4.20;97.20;;;;;;1742194;28;20684;-81
2022/01/24 07:54:08;;;;;;;14.55;11.73;;;4.20;97.20;;;;;;1742176;28;20200;-82
2022/01/24 07:55:00;;;;;;;13.25;11.55;;;4.20;97.20;;;;;;1742086;28;20195;-82
2022/01/24 07:55:52;;;;;;;16.15;10.13;;;4.20;97.20;;;;;;1742144;28;20207;-83
2022/01/24 07:56:44;;;;;;;13.65;11.80;;;4.20;97.20;;;;;;1742219;28;20203;-81
2022/01/24 07:57:35;;;;;;;11.95;10.75;;;4.20;97.20;;;;;;1742143;28;20238;-82
2022/01/24 07:58:28;;;;;;;14.80;12.17;;;4.20;97.20;;;;;;1741955;28;20199;-82
2022/01/24 07:59:20;;;;;;;13.20;11.80;;;4.10;97.20;;;;;;1742104;28;20449;-82
2022/01/24 08:00:12;;;;;;;13.27;11.88;;;4.10;97.20;;;;;;1741881;28;20192;-81
2022/01/24 08:01:03;;;;;;;13.13;11.73;;;4.10;97.20;;;;;;1741902;28;20594;-83
2022/01/24 08:01:55;;;;;;;15.05;11.88;;;4.10;97.20;;;;;;1742344;28;20203;-82
2022/01/24 08:02:46;;;;;;;12.73;11.45;;;4.20;97.20;;;;;;1742282;28;20231;-82
2022/01/24 08:03:38;;;;;;;14.33;12.17;;;4.20;97.20;;;;;;1742064;28;20222;-82
2022/01/24 08:04:30;;;;;;;12.35;11.05;;;4.20;97.20;;;;;;1742185;28;20485;-83
2022/01/24 08:05:21;;;;;;;19.13;13.15;;;4.20;97.20;;;;;;1741989;28;20203;-82
2022/01/24 08:06:12;;;;;;;13.20;11.80;;;4.20;97.20;;;;;;1742180;28;20274;-82
2022/01/24 08:07:04;;;;;;;23.37;12.20;;;4.20;97.20;;;;;;1741603;28;20273;-83
2022/01/24 08:07:55;;;;;;;14.15;12.30;;;4.20;97.20;;;;;;1735115;28;20466;-82
2022/01/24 08:08:47;;;;;;;14.17;12.67;;;4.20;97.20;;;;;;1735157;28;20198;-82
2022/01/24 08:09:38;;;;;;;13.95;12.45;;;4.20;97.20;;;;;;1735306;28;20282;-84
2022/01/24 08:10:29;;;;;;;13.83;12.20;;;4.30;97.20;;;;;;1735184;28;20204;-83
2022/01/24 08:11:20;;;;;;;12.77;11.23;;;4.30;97.20;;;;;;1741222;28;20223;-82
2022/01/24 08:12:12;;;;;;;14.10;12.60;;;4.20;97.20;;;;;;1742069;28;20289;-82
2022/01/24 08:13:03;;;;;;;16.00;11.70;;;4.30;97.20;;;;;;1741845;28;20574;-84
2022/01/24 08:13:55;;;;;;;13.88;12.38;;;4.30;97.20;;;;;;1742068;28;20203;-82
2022/01/24 08:14:45;;;;;;;13.20;11.90;;;4.30;97.20;;;;;;1741641;28;20206;-82
2022/01/24 08:15:37;;;;;;;14.50;11.97;;;4.30;97.20;;;;;;1742108;28;20206;-82
2022/01/24 08:16:28;;;;;;;13.00;11.60;;;4.30;97.20;;;;;;1742156;28;20689;-83
2022/01/24 08:17:20;;;;;;;13.57;12.10;;;4.30;97.20;;;;;;1741887;28;20210;-82
2022/01/24 08:18:12;;;;;;;13.82;12.13;;;4.30;97.20;;;;;;1741700;28;20203;-82
2022/01/24 08:19:04;;;;;;;16.50;12.52;;;4.40;97.20;;;;;;1741977;28;20268;-82
2022/01/24 08:19:56;;;;;;;15.20;11.95;;;4.40;97.20;;;;;;1741906;28;20199;-83
2022/01/24 08:20:48;;;;;;;16.45;12.52;;;4.40;97.20;;;;;;1741688;28;20272;-83
2022/01/24 08:21:39;;;;;;;13.98;12.57;;;4.40;97.20;;;;;;1741993;28;20226;-83
2022/01/24 08:22:30;;;;;;;15.93;12.35;;;4.50;97.20;;;;;;1742025;28;20211;-83
2022/01/24 08:23:22;;;;;;;13.57;12.00;;;4.50;97.20;;;;;;1741964;28;20722;-82
2022/01/24 08:24:13;;;;;;;13.90;12.50;;;4.50;97.20;;;;;;1741600;28;20203;-82
2022/01/24 08:25:05;;;;;;;15.60;13.47;;;4.50;97.20;;;;;;1741860;28;20209;-83
2022/01/24 08:25:56;;;;;;;17.15;14.43;;;4.50;97.20;;;;;;1742081;28;20438;-84
2022/01/24 08:26:48;;;;;;;15.23;13.73;;;4.50;97.20;;;;;;1743244;28;20210;-83
2022/01/24 08:27:39;;;;;;;15.10;13.50;;;4.50;97.20;;;;;;1742404;28;20207;-84
2022/01/24 08:28:31;;;;;;;14.82;13.23;;;4.50;97.20;;;;;;1741900;28;20220;-83
2022/01/24 08:29:22;;;;;;;14.70;13.20;;;4.60;97.20;;;;;;1741473;28;20253;-84
2022/01/24 08:30:16;;;;;;;14.33;12.83;;;4.60;97.20;;;;;;1741799;28;20199;-83
2022/01/24 08:31:08;;;;;;;15.70;14.10;;;4.60;97.20;;;;;;1741203;28;20210;-82
2022/01/24 08:31:58;;;;;;;16.02;14.32;;;4.60;97.20;;;;;;1741338;28;20198;-83
2022/01/24 08:32:50;;;;;;;16.50;14.37;;;4.60;97.20;;;;;;1741921;28;20199;-83
2022/01/24 08:33:43;;;;;;;14.23;12.82;;;4.60;97.20;;;;;;1741783;28;20241;-82
2022/01/24 08:34:34;;;;;;;15.40;13.88;;;4.60;97.20;;;;;;1741872;28;20228;-82
2022/01/24 08:35:27;;;;;;;15.90;14.30;;;4.60;97.20;;;;;;1741895;28;20249;-83
2022/01/24 08:36:18;;;;;;;16.30;14.00;;;4.60;97.20;;;;;;1741437;28;20207;-83
2022/01/24 08:37:10;;;;;;;17.67;15.77;;;4.60;97.20;;;;;;1741940;28;20280;-83
2022/01/24 08:38:01;;;;;;;15.55;14.02;;;4.60;97.20;;;;;;1741568;28;20215;-84
2022/01/24 08:38:53;;;;;;;18.00;16.10;;;4.70;97.20;;;;;;1741747;28;20207;-82
2022/01/24 08:39:45;;;;;;;19.73;15.73;;;4.70;97.20;;;;;;1741944;28;20214;-83
2022/01/24 08:40:39;;;;;;;19.17;16.98;;;4.70;97.20;;;;;;1741341;28;20227;-81
2022/01/24 08:41:41;;;;;;;20.83;16.73;;;4.80;97.20;;;;;;1741453;28;20219;-82
2022/01/24 08:42:37;;;;;;;18.35;16.50;;;4.80;97.20;;;;;;1741916;28;20630;-83
2022/01/24 08:43:39;;;;;;;19.50;17.38;;;4.80;97.20;;;;;;1737650;28;20234;-83
2022/01/24 08:45:42;;;;;;;18.75;16.85;;;4.80;97.20;;;;;;1741547;28;20558;-83
2022/01/24 08:45:48;;;;;;;18.23;16.30;;;4.90;97.20;;;;;;1740695;28;20194;-83
2022/01/24 08:46:40;;;;;;;20.38;17.25;;;5.00;97.20;;;;;;1741639;28;20225;-83
2022/01/24 08:47:35;;;;;;;18.70;16.67;;;5.00;97.20;;;;;;1741818;28;20231;-83
2022/01/24 08:48:28;;;;;;;19.20;16.02;;;5.00;97.20;;;;;;1741828;28;20223;-82
2022/01/24 08:49:18;;;;;;;17.48;15.63;;;5.10;97.20;;;;;;1741779;28;20203;-83
2022/01/24 08:50:10;;;;;;;17.60;15.90;;;5.10;97.20;;;;;;1741882;28;20199;-83
2022/01/24 08:51:03;;;;;;;20.98;18.25;;;5.10;97.20;;;;;;1741721;28;20234;-84
2022/01/24 08:51:54;;;;;;;20.33;18.25;;;5.20;97.20;;;;;;1741825;28;20209;-83
2022/01/24 08:52:45;;;;;;;19.63;17.70;;;5.20;97.20;;;;;;1741729;28;20239;-83
2022/01/24 08:53:37;;;;;;;18.20;16.50;;;5.20;97.20;;;;;;1741784;28;20207;-83
2022/01/24 08:54:27;;;;;;;19.30;17.40;;;5.20;97.20;;;;;;1741660;28;20214;-83
2022/01/24 08:55:19;;;;;;;20.20;18.10;;;5.20;97.20;;;;;;1741563;28;20206;-81
2022/01/24 08:56:11;;;;;;;19.30;17.40;;;5.20;97.20;;;;;;1741660;28;20484;-83
2022/01/24 08:57:03;;;;;;;18.40;16.60;;;5.30;97.20;;;;;;1741763;28;20286;-82
2022/01/24 08:57:55;;;;;;;17.45;15.85;;;5.30;97.20;;;;;;1741552;28;20695;-83
2022/01/24 08:58:46;;;;;;;18.67;16.88;;;5.40;97.20;;;;;;1741207;28;20223;-84
2022/01/24 08:59:38;;;;;;;17.15;15.55;;;5.50;97.20;;;;;;1741849;28;20237;-83
2022/01/24 09:00:30;;;;;;;17.80;16.05;;;5.50;97.20;;;;;;1741339;28;20714;-83
2022/01/24 09:01:21;;;;;;;18.00;16.27;;;5.60;97.20;;;;;;1741370;28;20253;-83
2022/01/24 09:02:12;;;;;;;17.57;15.87;;;5.60;97.20;;;;;;1741647;28;20203;-83
2022/01/24 09:03:04;;;;;;;16.55;14.85;;;5.60;97.20;;;;;;1741606;28;20606;-83
2022/01/24 09:03:55;;;;;;;18.25;16.55;;;5.70;97.20;;;;;;1741281;28;20231;-82
2022/01/24 09:04:46;;;;;;;16.35;14.75;;;5.80;97.20;;;;;;1741624;28;20724;-83
2022/01/24 09:05:38;;;;;;;17.73;16.02;;;5.80;97.20;;;;;;1741556;28;20298;-83
2022/01/24 09:06:30;;;;;;;16.63;14.90;;;5.90;97.20;;;;;;1741220;28;20554;-83
2022/01/24 09:07:23;;;;;;;16.08;14.57;;;5.90;97.20;;;;;;1741649;28;20237;-84
2022/01/24 09:08:15;;;;;;;16.70;15.10;;;6.00;97.20;;;;;;1741192;28;20211;-83
2022/01/24 09:09:06;;;;;;;16.23;14.63;;;6.10;97.20;;;;;;1741413;28;20670;-84
2022/01/24 09:09:58;;;;;;;15.60;14.10;;;6.20;97.20;;;;;;1741581;28;20548;-84
2022/01/24 09:10:50;;;;;;;15.68;14.32;;;6.30;97.20;;;;;;1741564;28;20223;-83
2022/01/24 09:11:42;;;;;;;15.30;13.90;;;6.40;97.20;;;;;;1741010;28;20241;-83
2022/01/24 09:12:33;;;;;;;16.55;14.85;;;6.40;97.20;;;;;;1741548;28;20214;-84
2022/01/24 09:13:24;;;;;;;14.67;13.27;;;6.50;97.20;;;;;;1741470;28;20212;-84
2022/01/24 09:14:15;;;;;;;16.05;14.55;;;6.60;97.20;;;;;;1741109;28;20917;-84
2022/01/24 09:15:07;;;;;;;14.90;13.53;;;6.60;97.20;;;;;;1741152;28;20251;-84
2022/01/24 09:16:00;;;;;;;14.80;13.30;;;6.70;97.20;;;;;;1741299;28;20244;-84
2022/01/24 09:16:51;;;;;;;14.88;13.48;;;6.70;97.20;;;;;;1741375;28;20227;-83
2022/01/24 09:17:43;;;;;;;15.77;14.37;;;6.80;97.20;;;;;;1741196;28;20210;-84
2022/01/24 09:18:35;;;;;;;15.80;14.20;;;6.80;97.20;;;;;;1741467;28;20292;-84
2022/01/24 09:19:27;;;;;;;15.82;14.32;;;6.90;97.20;;;;;;1741352;28;20199;-84
2022/01/24 09:20:17;;;;;;;13.50;12.30;;;6.90;97.20;;;;;;1741320;28;20239;-84
2022/01/24 09:21:09;;;;;;;13.07;11.90;;;7.00;97.20;;;;;;1741453;28;20214;-84
2022/01/24 09:22:01;;;;;;;15.07;13.75;;;7.10;97.20;;;;;;1741109;28;20485;-84
2022/01/24 09:22:53;;;;;;;14.75;13.25;;;7.20;97.20;;;;;;1741417;28;20203;-84
2022/01/24 09:23:44;;;;;;;13.88;12.48;;;7.30;97.20;;;;;;1741498;28;20263;-83
2022/01/24 09:24:37;;;;;;;14.40;12.90;;;7.40;97.20;;;;;;1741447;28;20203;-84
2022/01/24 09:25:27;;;;;;;14.50;13.20;;;7.40;97.20;;;;;;1741145;28;20966;-83
2022/01/24 09:26:19;;;;;;;13.90;12.70;;;7.40;97.20;;;;;;1741434;28;20596;-84
2022/01/24 09:27:10;;;;;;;13.40;12.20;;;7.50;97.20;;;;;;1741406;28;20841;-83
2022/01/24 09:28:02;;;;;;;14.20;12.87;;;7.60;97.20;;;;;;1741095;28;20601;-83
2022/01/24 09:28:53;;;;;;;13.35;12.20;;;7.70;97.20;;;;;;1741118;28;20964;-83
2022/01/24 09:29:45;;;;;;;12.60;11.33;;;7.80;97.20;;;;;;1741450;28;20576;-83
2022/01/24 09:30:36;;;;;;;13.85;12.45;;;7.90;97.20;;;;;;1741266;28;20508;-83
2022/01/24 09:31:28;;;;;;;13.37;12.07;;;8.00;97.20;;;;;;1741160;28;20195;-83
2022/01/24 09:32:19;;;;;;;14.85;12.40;;;8.00;97.20;;;;;;1741548;28;20203;-83
2022/01/24 09:33:11;;;;;;;13.20;11.82;;;8.10;97.20;;;;;;1741506;28;20751;-83
2022/01/24 09:34:02;;;;;;;13.48;12.10;;;8.20;97.20;;;;;;1741144;28;20261;-84
2022/01/24 09:34:54;;;;;;;12.23;11.03;;;8.30;97.20;;;;;;1741491;28;20198;-84
2022/01/24 09:35:46;;;;;;;12.18;10.85;;;8.40;97.20;;;;;;1741137;28;20464;-83
2022/01/24 09:36:37;;;;;;;11.77;10.68;;;8.50;97.20;;;;;;1741398;28;20218;-84
2022/01/24 09:37:31;;;;;;;10.50;9.60;;;8.60;97.20;;;;;;1741388;28;20282;-83
2022/01/24 09:38:23;;;;;;;12.00;10.80;;;8.70;97.20;;;;;;1741128;28;20211;-84
2022/01/24 09:39:15;;;;;;;12.30;11.20;;;8.80;97.20;;;;;;1741307;28;20196;-84
2022/01/24 09:40:09;;;;;;;12.27;11.18;;;8.90;97.20;;;;;;1741400;28;20571;-83
2022/01/24 09:41:03;;;;;;;11.73;10.73;;;9.00;97.20;;;;;;1741588;28;20227;-83
2022/01/24 09:41:54;;;;;;;13.32;12.15;;;9.20;97.20;;;;;;1741572;28;20784;-82
2022/01/24 09:42:49;;;;;;;13.85;11.65;;;9.30;97.20;;;;;;1741369;28;20238;-83
2022/01/24 09:43:40;;;;;;;13.10;11.13;;;9.40;97.20;;;;;;1740952;28;20210;-83
2022/01/24 09:44:32;;;;;;;12.35;11.20;;;9.50;97.20;;;;;;1741344;28;20195;-83
2022/01/24 09:45:23;;;;;;;12.80;11.68;;;9.60;97.20;;;;;;1741559;28;20249;-84
2022/01/24 09:46:15;;;;;;;10.93;9.97;;;9.60;97.20;;;;;;1742847;28;20217;-83
2022/01/24 09:47:07;;;;;;;11.15;10.15;;;9.70;97.20;;;;;;1743430;28;20203;-82
2022/01/24 09:47:58;;;;;;;11.75;10.65;;;9.80;97.20;;;;;;1741580;28;20203;-83
2022/01/24 09:48:51;;;;;;;15.97;11.27;;;9.90;97.20;;;;;;1741464;28;20278;-83
2022/01/24 09:49:42;;;;;;;10.80;9.85;;;10.00;97.20;;;;;;1741765;28;20452;-85
2022/01/24 09:50:34;;;;;;;11.55;10.35;;;10.10;97.20;;;;;;1741531;28;20217;-82
2022/01/24 09:51:25;;;;;;;11.90;10.77;;;10.20;97.20;;;;;;1741484;28;20225;-83
2022/01/24 09:52:17;;;;;;;10.23;9.33;;;10.30;97.20;;;;;;1741480;28;20306;-84
2022/01/24 09:53:09;;;;;;;10.20;9.30;;;10.40;97.20;;;;;;1741173;28;20195;-84
2022/01/24 09:54:03;;;;;;;15.00;9.60;;;10.50;97.20;;;;;;1741617;28;20207;-83
2022/01/24 09:54:54;;;;;;;8.82;8.02;;;10.50;97.20;;;;;;1741577;28;20214;-83
2022/01/24 09:55:45;;;;;;;9.60;8.70;;;10.60;97.20;;;;;;1741099;28;20286;-83
2022/01/24 09:56:36;;;;;;;9.02;8.13;;;10.70;97.20;;;;;;1741610;28;20327;-84
2022/01/24 09:57:29;;;;;;;9.60;8.70;;;10.80;97.20;;;;;;1741347;28;20199;-83
2022/01/24 09:58:20;;;;;;;9.20;8.50;;;10.80;97.20;;;;;;1741043;28;20203;-84
2022/01/24 09:59:13;;;;;;;9.10;8.30;;;11.00;97.20;;;;;;1740942;28;20191;-83
2022/01/24 10:00:07;;;;;;;9.55;8.68;;;11.10;97.20;;;;;;1741443;28;20234;-84
2022/01/24 10:00:59;;;;;;;9.23;8.43;;;11.10;97.20;;;;;;1740918;28;20229;-83
2022/01/24 10:01:50;;;;;;;10.23;9.32;;;11.20;97.20;;;;;;1741492;28;20284;-83
2022/01/24 10:02:44;;;;;;;9.67;8.70;;;11.30;97.20;;;;;;1741545;28;20260;-84
2022/01/24 10:03:36;;;;;;;10.45;9.05;;;11.40;97.20;;;;;;1741471;28;20241;-82
2022/01/24 10:04:28;;;;;;;9.05;8.35;;;11.50;97.20;;;;;;1741507;28;20199;-82
2022/01/24 10:05:21;;;;;;;8.40;7.80;;;11.60;97.20;;;;;;1741070;28;20203;-82
2022/01/24 10:06:13;;;;;;;8.45;7.75;;;11.80;97.20;;;;;;1741476;28;20563;-84
2022/01/24 10:07:07;;;;;;;8.13;7.53;;;11.90;97.20;;;;;;1741341;28;20672;-84
2022/01/24 10:08:00;;;;;;;8.60;7.90;;;12.00;97.20;;;;;;1741049;28;20202;-83
2022/01/24 10:08:53;;;;;;;9.10;8.40;;;12.20;97.20;;;;;;1741257;28;20225;-84
2022/01/24 10:09:46;;;;;;;9.88;9.07;;;12.20;97.20;;;;;;1741232;28;20202;-82
2022/01/24 10:10:46;;;;;;;9.60;8.70;;;12.30;97.20;;;;;;1740521;28;20327;-83
2022/01/24 10:11:36;;;;;;;9.07;8.38;;;12.40;97.20;;;;;;1734540;28;20216;-84
2022/01/24 10:16:24;;;;;;;8.70;8.00;;;12.50;97.20;;;;;;1736893;28;20190;-82
2022/01/24 10:16:31;;;;;;;8.30;7.60;;;13.10;97.20;;;;;;1739270;28;20244;-84
2022/01/24 10:17:23;;;;;;;8.00;7.40;;;13.30;97.20;;;;;;1741589;28;20195;-85
2022/01/24 10:18:15;;;;;;;7.75;7.00;;;13.50;97.20;;;;;;1739484;28;20626;-84
2022/01/24 10:19:09;;;;;;;7.65;7.03;;;13.60;97.20;;;;;;1738966;28;20195;-84
2022/01/24 10:20:16;;;;;;;9.38;8.25;;;13.80;97.20;;;;;;1741380;28;20647;-83
2022/01/24 10:21:17;;;;;;;8.07;7.40;;;14.00;97.20;;;;;;1741557;28;20213;-83
2022/01/24 10:22:09;;;;;;;8.45;7.72;;;14.20;97.20;;;;;;1741126;28;20230;-83
2022/01/24 10:23:03;;;;;;;9.02;8.32;;;14.30;97.20;;;;;;1741590;28;20203;-84
2022/01/24 10:23:56;;;;;;;9.20;8.45;;;14.40;97.20;;;;;;1741654;28;20262;-83
2022/01/24 10:24:51;;;;;;;10.35;9.45;;;14.50;97.20;;;;;;1741483;28;20209;-85
2022/01/24 10:25:51;;;;;;;9.80;9.00;;;14.60;97.20;;;;;;1741479;28;20341;-84
2022/01/24 10:26:42;;;;;;;9.82;9.02;;;14.70;97.20;;;;;;1741567;28;20678;-82
2022/01/24 10:27:33;;;;;;;10.45;9.43;;;14.80;97.20;;;;;;1741223;28;20577;-83
2022/01/24 10:28:30;;;;;;;10.37;9.40;;;15.00;97.20;;;;;;1741467;28;20693;-84
2022/01/24 10:29:27;;;;;;;9.95;9.07;;;15.10;97.20;;;;;;1741334;28;20199;-85
2022/01/24 10:30:18;;;;;;;10.07;9.07;;;15.20;97.20;;;;;;1740365;28;20708;-83
2022/01/24 10:31:11;;;;;;;9.68;8.88;;;15.30;97.20;;;;;;1740341;28;20195;-84
2022/01/24 10:32:03;;;;;;;9.80;9.05;;;15.40;97.20;;;;;;1741349;28;20226;-83